sensor_id;sensor_type;location;lat;lon;timestamp;P1;durP1;ratioP1;P2;durP2;ratioP2
22752;SDS011;11543;43.144;24.684;2023-11-19T00:02:13;2.40;;;1.52;;
22752;SDS011;11543;43.144;24.684;2023-11-19T00:04:39;2.67;;;1.40;;
22752;SDS011;11543;43.144;24.684;2023-11-19T00:07:07;2.20;;;1.60;;
22752;SDS011;11543;43.144;24.684;2023-11-19T00:09:35;1.75;;;1.27;;
22752;SDS011;11543;43.144;24.684;2023-11-19T00:12:05;2.40;;;1.27;;
22752;SDS011;11543;43.144;24.684;2023-11-19T00:14:32;1.77;;;1.38;;
22752;SDS011;11543;43.144;24.684;2023-11-19T00:17:00;2.22;;;1.20;;
22752;SDS011;11543;43.144;24.684;2023-11-19T00:19:26;1.80;;;1.30;;
22752;SDS011;11543;43.144;24.684;2023-11-19T00:21:51;1.85;;;1.30;;
22752;SDS011;11543;43.144;24.684;2023-11-19T00:24:17;1.63;;;1.35;;
22752;SDS011;11543;43.144;24.684;2023-11-19T00:26:43;2.55;;;1.40;;
22752;SDS011;11543;43.144;24.684;2023-11-19T00:29:09;1.77;;;1.10;;
22752;SDS011;11543;43.144;24.684;2023-11-19T00:31:35;1.92;;;1.13;;
22752;SDS011;11543;43.144;24.684;2023-11-19T00:34:01;1.90;;;1.33;;
22752;SDS011;11543;43.144;24.684;2023-11-19T00:36:27;1.45;;;1.08;;
22752;SDS011;11543;43.144;24.684;2023-11-19T00:38:53;1.77;;;1.30;;
22752;SDS011;11543;43.144;24.684;2023-11-19T00:41:19;1.77;;;1.30;;
22752;SDS011;11543;43.144;24.684;2023-11-19T00:43:44;1.77;;;1.40;;
22752;SDS011;11543;43.144;24.684;2023-11-19T00:46:10;1.83;;;1.30;;
22752;SDS011;11543;43.144;24.684;2023-11-19T00:48:39;1.67;;;1.20;;
22752;SDS011;11543;43.144;24.684;2023-11-19T00:51:04;1.83;;;1.20;;
22752;SDS011;11543;43.144;24.684;2023-11-19T00:53:30;2.20;;;1.38;;
22752;SDS011;11543;43.144;24.684;2023-11-19T00:55:57;1.85;;;1.10;;
22752;SDS011;11543;43.144;24.684;2023-11-19T00:58:22;2.63;;;1.20;;
22752;SDS011;11543;43.144;24.684;2023-11-19T01:00:48;2.92;;;1.35;;
22752;SDS011;11543;43.144;24.684;2023-11-19T01:03:13;1.75;;;1.40;;
22752;SDS011;11543;43.144;24.684;2023-11-19T01:05:40;2.00;;;1.40;;
22752;SDS011;11543;43.144;24.684;2023-11-19T01:08:06;4.03;;;1.35;;
22752;SDS011;11543;43.144;24.684;2023-11-19T01:10:33;2.72;;;1.40;;
22752;SDS011;11543;43.144;24.684;2023-11-19T01:12:59;1.63;;;1.23;;
22752;SDS011;11543;43.144;24.684;2023-11-19T01:15:24;2.17;;;1.42;;
22752;SDS011;11543;43.144;24.684;2023-11-19T01:17:50;1.98;;;1.27;;
22752;SDS011;11543;43.144;24.684;2023-11-19T01:20:15;2.08;;;1.48;;
22752;SDS011;11543;43.144;24.684;2023-11-19T01:22:41;2.17;;;1.55;;
22752;SDS011;11543;43.144;24.684;2023-11-19T01:25:06;1.75;;;1.23;;
22752;SDS011;11543;43.144;24.684;2023-11-19T01:27:32;1.83;;;1.50;;
22752;SDS011;11543;43.144;24.684;2023-11-19T01:30:01;4.55;;;1.50;;
22752;SDS011;11543;43.144;24.684;2023-11-19T01:32:34;1.90;;;1.48;;
22752;SDS011;11543;43.144;24.684;2023-11-19T01:35:00;2.00;;;1.60;;
22752;SDS011;11543;43.144;24.684;2023-11-19T01:37:26;2.92;;;1.60;;
22752;SDS011;11543;43.144;24.684;2023-11-19T01:39:51;2.35;;;1.65;;
22752;SDS011;11543;43.144;24.684;2023-11-19T01:42:17;2.20;;;1.50;;
22752;SDS011;11543;43.144;24.684;2023-11-19T01:44:42;2.17;;;1.77;;
22752;SDS011;11543;43.144;24.684;2023-11-19T01:47:08;2.30;;;1.45;;
22752;SDS011;11543;43.144;24.684;2023-11-19T01:49:34;2.25;;;1.60;;
22752;SDS011;11543;43.144;24.684;2023-11-19T01:51:59;2.95;;;1.70;;
22752;SDS011;11543;43.144;24.684;2023-11-19T01:54:25;2.30;;;1.60;;
22752;SDS011;11543;43.144;24.684;2023-11-19T01:56:53;2.85;;;1.90;;
22752;SDS011;11543;43.144;24.684;2023-11-19T01:59:22;2.90;;;1.67;;
22752;SDS011;11543;43.144;24.684;2023-11-19T02:01:52;2.90;;;1.58;;
22752;SDS011;11543;43.144;24.684;2023-11-19T02:04:21;2.05;;;1.55;;
22752;SDS011;11543;43.144;24.684;2023-11-19T02:06:47;2.40;;;1.60;;
22752;SDS011;11543;43.144;24.684;2023-11-19T02:09:14;3.47;;;1.65;;
22752;SDS011;11543;43.144;24.684;2023-11-19T02:11:44;2.67;;;1.58;;
22752;SDS011;11543;43.144;24.684;2023-11-19T02:14:13;2.50;;;1.80;;
22752;SDS011;11543;43.144;24.684;2023-11-19T02:16:39;3.80;;;1.60;;
22752;SDS011;11543;43.144;24.684;2023-11-19T02:19:04;2.00;;;1.60;;
22752;SDS011;11543;43.144;24.684;2023-11-19T02:21:31;4.05;;;1.70;;
22752;SDS011;11543;43.144;24.684;2023-11-19T02:23:57;2.08;;;1.60;;
22752;SDS011;11543;43.144;24.684;2023-11-19T02:26:30;2.75;;;1.80;;
22752;SDS011;11543;43.144;24.684;2023-11-19T02:29:26;2.63;;;1.75;;
22752;SDS011;11543;43.144;24.684;2023-11-19T02:31:52;5.00;;;1.80;;
22752;SDS011;11543;43.144;24.684;2023-11-19T02:34:20;2.78;;;1.85;;
22752;SDS011;11543;43.144;24.684;2023-11-19T02:36:46;3.33;;;1.77;;
22752;SDS011;11543;43.144;24.684;2023-11-19T02:39:12;3.50;;;1.83;;
22752;SDS011;11543;43.144;24.684;2023-11-19T02:41:38;2.38;;;1.52;;
22752;SDS011;11543;43.144;24.684;2023-11-19T02:44:05;3.72;;;1.80;;
22752;SDS011;11543;43.144;24.684;2023-11-19T02:46:32;2.42;;;1.85;;
22752;SDS011;11543;43.144;24.684;2023-11-19T02:48:57;3.80;;;1.90;;
22752;SDS011;11543;43.144;24.684;2023-11-19T02:51:23;2.30;;;1.50;;
22752;SDS011;11543;43.144;24.684;2023-11-19T02:53:49;2.50;;;1.60;;
22752;SDS011;11543;43.144;24.684;2023-11-19T02:56:14;2.47;;;1.70;;
22752;SDS011;11543;43.144;24.684;2023-11-19T02:58:51;2.38;;;1.63;;
22752;SDS011;11543;43.144;24.684;2023-11-19T03:01:25;3.05;;;1.88;;
22752;SDS011;11543;43.144;24.684;2023-11-19T03:03:59;4.03;;;1.70;;
22752;SDS011;11543;43.144;24.684;2023-11-19T03:06:27;2.92;;;1.95;;
22752;SDS011;11543;43.144;24.684;2023-11-19T03:08:54;2.38;;;1.92;;
22752;SDS011;11543;43.144;24.684;2023-11-19T03:11:20;2.78;;;1.70;;
22752;SDS011;11543;43.144;24.684;2023-11-19T03:13:45;2.22;;;1.65;;
22752;SDS011;11543;43.144;24.684;2023-11-19T03:16:12;2.47;;;2.08;;
22752;SDS011;11543;43.144;24.684;2023-11-19T03:18:38;2.50;;;1.60;;
22752;SDS011;11543;43.144;24.684;2023-11-19T03:21:05;2.85;;;1.83;;
22752;SDS011;11543;43.144;24.684;2023-11-19T03:23:33;3.10;;;1.88;;
22752;SDS011;11543;43.144;24.684;2023-11-19T03:25:58;2.72;;;2.10;;
22752;SDS011;11543;43.144;24.684;2023-11-19T03:28:24;2.75;;;1.95;;
22752;SDS011;11543;43.144;24.684;2023-11-19T03:30:49;3.05;;;2.08;;
22752;SDS011;11543;43.144;24.684;2023-11-19T03:33:15;3.38;;;2.10;;
22752;SDS011;11543;43.144;24.684;2023-11-19T03:35:40;3.38;;;2.10;;
22752;SDS011;11543;43.144;24.684;2023-11-19T03:38:06;2.65;;;2.00;;
22752;SDS011;11543;43.144;24.684;2023-11-19T03:40:32;2.95;;;2.17;;
22752;SDS011;11543;43.144;24.684;2023-11-19T03:42:57;3.15;;;2.22;;
22752;SDS011;11543;43.144;24.684;2023-11-19T03:45:26;4.13;;;2.13;;
22752;SDS011;11543;43.144;24.684;2023-11-19T03:47:51;2.97;;;2.35;;
22752;SDS011;11543;43.144;24.684;2023-11-19T03:50:17;3.28;;;2.15;;
22752;SDS011;11543;43.144;24.684;2023-11-19T03:52:45;2.83;;;2.20;;
22752;SDS011;11543;43.144;24.684;2023-11-19T03:55:10;2.63;;;2.08;;
22752;SDS011;11543;43.144;24.684;2023-11-19T03:57:37;3.13;;;2.20;;
22752;SDS011;11543;43.144;24.684;2023-11-19T04:00:03;3.15;;;2.38;;
22752;SDS011;11543;43.144;24.684;2023-11-19T04:02:39;3.53;;;2.40;;
22752;SDS011;11543;43.144;24.684;2023-11-19T04:05:04;3.03;;;2.33;;
22752;SDS011;11543;43.144;24.684;2023-11-19T04:07:31;3.92;;;2.22;;
22752;SDS011;11543;43.144;24.684;2023-11-19T04:09:57;4.25;;;2.50;;
22752;SDS011;11543;43.144;24.684;2023-11-19T04:12:23;3.47;;;2.22;;
22752;SDS011;11543;43.144;24.684;2023-11-19T04:14:48;2.80;;;2.20;;
22752;SDS011;11543;43.144;24.684;2023-11-19T04:17:14;2.85;;;2.38;;
22752;SDS011;11543;43.144;24.684;2023-11-19T04:19:39;5.40;;;2.38;;
22752;SDS011;11543;43.144;24.684;2023-11-19T04:22:07;3.15;;;2.33;;
22752;SDS011;11543;43.144;24.684;2023-11-19T04:24:33;3.28;;;2.20;;
22752;SDS011;11543;43.144;24.684;2023-11-19T04:26:59;5.43;;;2.40;;
22752;SDS011;11543;43.144;24.684;2023-11-19T04:29:25;3.33;;;2.40;;
22752;SDS011;11543;43.144;24.684;2023-11-19T04:31:50;3.60;;;2.75;;
22752;SDS011;11543;43.144;24.684;2023-11-19T04:34:16;2.58;;;2.25;;
22752;SDS011;11543;43.144;24.684;2023-11-19T04:36:41;3.63;;;2.72;;
22752;SDS011;11543;43.144;24.684;2023-11-19T04:39:06;3.17;;;2.30;;
22752;SDS011;11543;43.144;24.684;2023-11-19T04:41:49;3.15;;;2.33;;
22752;SDS011;11543;43.144;24.684;2023-11-19T04:44:19;4.03;;;2.55;;
22752;SDS011;11543;43.144;24.684;2023-11-19T04:46:45;3.10;;;2.30;;
22752;SDS011;11543;43.144;24.684;2023-11-19T04:49:11;5.32;;;2.60;;
22752;SDS011;11543;43.144;24.684;2023-11-19T04:51:38;3.95;;;2.67;;
22752;SDS011;11543;43.144;24.684;2023-11-19T04:54:05;3.00;;;2.42;;
22752;SDS011;11543;43.144;24.684;2023-11-19T04:56:30;3.17;;;2.40;;
22752;SDS011;11543;43.144;24.684;2023-11-19T04:58:56;3.60;;;2.35;;
22752;SDS011;11543;43.144;24.684;2023-11-19T05:01:21;3.95;;;2.80;;
22752;SDS011;11543;43.144;24.684;2023-11-19T05:03:47;3.45;;;2.30;;
22752;SDS011;11543;43.144;24.684;2023-11-19T05:06:12;3.30;;;2.53;;
22752;SDS011;11543;43.144;24.684;2023-11-19T05:08:38;4.00;;;2.67;;
22752;SDS011;11543;43.144;24.684;2023-11-19T05:11:03;3.42;;;2.60;;
22752;SDS011;11543;43.144;24.684;2023-11-19T05:13:31;4.60;;;2.65;;
22752;SDS011;11543;43.144;24.684;2023-11-19T05:15:56;3.47;;;2.50;;
22752;SDS011;11543;43.144;24.684;2023-11-19T05:18:21;4.70;;;3.45;;
22752;SDS011;11543;43.144;24.684;2023-11-19T05:20:47;3.20;;;2.65;;
22752;SDS011;11543;43.144;24.684;2023-11-19T05:23:13;4.90;;;3.15;;
22752;SDS011;11543;43.144;24.684;2023-11-19T05:25:38;4.65;;;3.00;;
22752;SDS011;11543;43.144;24.684;2023-11-19T05:28:04;4.63;;;2.97;;
22752;SDS011;11543;43.144;24.684;2023-11-19T05:30:29;3.75;;;2.88;;
22752;SDS011;11543;43.144;24.684;2023-11-19T05:32:55;4.68;;;3.03;;
22752;SDS011;11543;43.144;24.684;2023-11-19T05:35:20;4.25;;;3.13;;
22752;SDS011;11543;43.144;24.684;2023-11-19T05:37:46;5.32;;;3.13;;
22752;SDS011;11543;43.144;24.684;2023-11-19T05:40:11;3.92;;;2.80;;
22752;SDS011;11543;43.144;24.684;2023-11-19T05:42:40;3.90;;;2.85;;
22752;SDS011;11543;43.144;24.684;2023-11-19T05:45:06;3.75;;;2.70;;
22752;SDS011;11543;43.144;24.684;2023-11-19T05:47:33;3.58;;;2.70;;
22752;SDS011;11543;43.144;24.684;2023-11-19T05:49:58;3.88;;;2.72;;
22752;SDS011;11543;43.144;24.684;2023-11-19T05:52:24;4.05;;;2.80;;
22752;SDS011;11543;43.144;24.684;2023-11-19T05:54:49;4.25;;;2.63;;
22752;SDS011;11543;43.144;24.684;2023-11-19T05:57:17;4.43;;;2.88;;
22752;SDS011;11543;43.144;24.684;2023-11-19T05:59:47;3.55;;;2.63;;
22752;SDS011;11543;43.144;24.684;2023-11-19T06:02:13;3.85;;;2.85;;
22752;SDS011;11543;43.144;24.684;2023-11-19T06:04:39;5.25;;;3.00;;
22752;SDS011;11543;43.144;24.684;2023-11-19T06:07:04;3.90;;;2.75;;
22752;SDS011;11543;43.144;24.684;2023-11-19T06:09:30;4.03;;;2.70;;
22752;SDS011;11543;43.144;24.684;2023-11-19T06:11:58;7.35;;;2.90;;
22752;SDS011;11543;43.144;24.684;2023-11-19T06:14:27;3.60;;;2.50;;
22752;SDS011;11543;43.144;24.684;2023-11-19T06:16:53;3.55;;;2.70;;
22752;SDS011;11543;43.144;24.684;2023-11-19T06:19:18;4.47;;;3.03;;
22752;SDS011;11543;43.144;24.684;2023-11-19T06:21:44;4.25;;;3.05;;
22752;SDS011;11543;43.144;24.684;2023-11-19T06:24:09;4.20;;;2.90;;
22752;SDS011;11543;43.144;24.684;2023-11-19T06:26:35;5.60;;;2.53;;
22752;SDS011;11543;43.144;24.684;2023-11-19T06:29:00;4.03;;;3.00;;
22752;SDS011;11543;43.144;24.684;2023-11-19T06:31:26;3.85;;;2.83;;
22752;SDS011;11543;43.144;24.684;2023-11-19T06:33:51;4.63;;;2.70;;
22752;SDS011;11543;43.144;24.684;2023-11-19T06:36:16;4.45;;;2.78;;
22752;SDS011;11543;43.144;24.684;2023-11-19T06:38:43;4.43;;;2.90;;
22752;SDS011;11543;43.144;24.684;2023-11-19T06:41:08;3.55;;;2.63;;
22752;SDS011;11543;43.144;24.684;2023-11-19T06:43:37;4.43;;;2.70;;
22752;SDS011;11543;43.144;24.684;2023-11-19T06:46:03;5.10;;;3.25;;
22752;SDS011;11543;43.144;24.684;2023-11-19T06:48:31;3.38;;;2.53;;
22752;SDS011;11543;43.144;24.684;2023-11-19T06:50:57;3.92;;;2.97;;
22752;SDS011;11543;43.144;24.684;2023-11-19T06:53:24;4.28;;;2.80;;
22752;SDS011;11543;43.144;24.684;2023-11-19T06:55:49;3.83;;;2.60;;
22752;SDS011;11543;43.144;24.684;2023-11-19T06:58:15;3.70;;;2.78;;
22752;SDS011;11543;43.144;24.684;2023-11-19T07:00:40;2.70;;;2.15;;
22752;SDS011;11543;43.144;24.684;2023-11-19T07:03:06;3.42;;;2.60;;
22752;SDS011;11543;43.144;24.684;2023-11-19T07:05:35;3.25;;;2.35;;
22752;SDS011;11543;43.144;24.684;2023-11-19T07:08:03;3.33;;;2.60;;
22752;SDS011;11543;43.144;24.684;2023-11-19T07:10:29;3.28;;;2.45;;
22752;SDS011;11543;43.144;24.684;2023-11-19T07:12:55;3.30;;;2.45;;
22752;SDS011;11543;43.144;24.684;2023-11-19T07:15:22;4.22;;;3.00;;
22752;SDS011;11543;43.144;24.684;2023-11-19T07:17:49;3.22;;;2.38;;
22752;SDS011;11543;43.144;24.684;2023-11-19T07:20:15;4.13;;;2.35;;
22752;SDS011;11543;43.144;24.684;2023-11-19T07:22:44;3.63;;;2.50;;
22752;SDS011;11543;43.144;24.684;2023-11-19T07:25:15;3.75;;;2.35;;
22752;SDS011;11543;43.144;24.684;2023-11-19T07:27:40;3.33;;;2.30;;
22752;SDS011;11543;43.144;24.684;2023-11-19T07:30:06;3.13;;;2.40;;
22752;SDS011;11543;43.144;24.684;2023-11-19T07:32:34;3.10;;;2.40;;
22752;SDS011;11543;43.144;24.684;2023-11-19T07:35:00;3.22;;;2.45;;
22752;SDS011;11543;43.144;24.684;2023-11-19T07:37:25;4.50;;;3.03;;
22752;SDS011;11543;43.144;24.684;2023-11-19T07:39:51;3.38;;;2.28;;
22752;SDS011;11543;43.144;24.684;2023-11-19T07:42:19;3.08;;;2.00;;
22752;SDS011;11543;43.144;24.684;2023-11-19T07:44:45;3.38;;;2.55;;
22752;SDS011;11543;43.144;24.684;2023-11-19T07:47:11;2.83;;;2.35;;
22752;SDS011;11543;43.144;24.684;2023-11-19T07:49:37;4.20;;;2.85;;
22752;SDS011;11543;43.144;24.684;2023-11-19T07:52:04;3.22;;;2.50;;
22752;SDS011;11543;43.144;24.684;2023-11-19T07:54:30;3.42;;;2.50;;
22752;SDS011;11543;43.144;24.684;2023-11-19T07:56:55;2.97;;;2.38;;
22752;SDS011;11543;43.144;24.684;2023-11-19T07:59:21;3.83;;;2.58;;
22752;SDS011;11543;43.144;24.684;2023-11-19T08:01:47;4.57;;;2.35;;
22752;SDS011;11543;43.144;24.684;2023-11-19T08:04:12;4.72;;;2.28;;
22752;SDS011;11543;43.144;24.684;2023-11-19T08:06:38;2.90;;;2.50;;
22752;SDS011;11543;43.144;24.684;2023-11-19T08:09:04;2.88;;;2.20;;
22752;SDS011;11543;43.144;24.684;2023-11-19T08:11:35;3.13;;;2.60;;
22752;SDS011;11543;43.144;24.684;2023-11-19T08:14:02;3.03;;;2.40;;
22752;SDS011;11543;43.144;24.684;2023-11-19T08:16:27;4.47;;;2.47;;
22752;SDS011;11543;43.144;24.684;2023-11-19T08:18:53;3.08;;;2.40;;
22752;SDS011;11543;43.144;24.684;2023-11-19T08:21:19;3.10;;;2.38;;
22752;SDS011;11543;43.144;24.684;2023-11-19T08:23:45;3.33;;;2.55;;
22752;SDS011;11543;43.144;24.684;2023-11-19T08:26:10;3.65;;;2.55;;
22752;SDS011;11543;43.144;24.684;2023-11-19T08:28:37;2.97;;;2.22;;
22752;SDS011;11543;43.144;24.684;2023-11-19T08:31:02;5.05;;;2.30;;
22752;SDS011;11543;43.144;24.684;2023-11-19T08:33:30;3.03;;;2.30;;
22752;SDS011;11543;43.144;24.684;2023-11-19T08:35:57;3.88;;;2.70;;
22752;SDS011;11543;43.144;24.684;2023-11-19T08:38:24;3.92;;;2.83;;
22752;SDS011;11543;43.144;24.684;2023-11-19T08:40:50;3.45;;;2.72;;
22752;SDS011;11543;43.144;24.684;2023-11-19T08:43:17;3.63;;;2.70;;
22752;SDS011;11543;43.144;24.684;2023-11-19T08:45:42;2.90;;;2.42;;
22752;SDS011;11543;43.144;24.684;2023-11-19T08:48:08;3.60;;;2.65;;
22752;SDS011;11543;43.144;24.684;2023-11-19T08:50:34;3.58;;;2.70;;
22752;SDS011;11543;43.144;24.684;2023-11-19T08:53:00;3.22;;;2.50;;
22752;SDS011;11543;43.144;24.684;2023-11-19T08:55:25;3.33;;;2.63;;
22752;SDS011;11543;43.144;24.684;2023-11-19T08:57:51;3.45;;;2.38;;
22752;SDS011;11543;43.144;24.684;2023-11-19T09:00:17;5.28;;;2.83;;
22752;SDS011;11543;43.144;24.684;2023-11-19T09:02:43;3.63;;;2.35;;
22752;SDS011;11543;43.144;24.684;2023-11-19T09:05:08;3.63;;;2.42;;
22752;SDS011;11543;43.144;24.684;2023-11-19T09:07:34;3.53;;;2.30;;
22752;SDS011;11543;43.144;24.684;2023-11-19T09:09:59;3.10;;;2.38;;
22752;SDS011;11543;43.144;24.684;2023-11-19T09:12:25;3.05;;;2.35;;
22752;SDS011;11543;43.144;24.684;2023-11-19T09:14:50;4.20;;;2.33;;
22752;SDS011;11543;43.144;24.684;2023-11-19T09:17:19;2.60;;;2.08;;
22752;SDS011;11543;43.144;24.684;2023-11-19T09:19:44;2.90;;;2.10;;
22752;SDS011;11543;43.144;24.684;2023-11-19T09:22:10;3.03;;;2.38;;
22752;SDS011;11543;43.144;24.684;2023-11-19T09:24:36;4.40;;;2.20;;
22752;SDS011;11543;43.144;24.684;2023-11-19T09:27:01;3.67;;;2.30;;
22752;SDS011;11543;43.144;24.684;2023-11-19T09:29:27;3.85;;;2.72;;
22752;SDS011;11543;43.144;24.684;2023-11-19T09:31:52;4.40;;;2.78;;
22752;SDS011;11543;43.144;24.684;2023-11-19T09:34:18;3.50;;;2.55;;
22752;SDS011;11543;43.144;24.684;2023-11-19T09:36:43;2.83;;;2.53;;
22752;SDS011;11543;43.144;24.684;2023-11-19T09:39:13;3.17;;;2.60;;
22752;SDS011;11543;43.144;24.684;2023-11-19T09:41:43;3.25;;;2.35;;
22752;SDS011;11543;43.144;24.684;2023-11-19T09:44:11;3.47;;;2.50;;
22752;SDS011;11543;43.144;24.684;2023-11-19T09:46:38;2.83;;;2.13;;
22752;SDS011;11543;43.144;24.684;2023-11-19T09:49:06;3.15;;;2.35;;
22752;SDS011;11543;43.144;24.684;2023-11-19T09:51:34;4.32;;;2.40;;
22752;SDS011;11543;43.144;24.684;2023-11-19T09:54:01;3.28;;;2.65;;
22752;SDS011;11543;43.144;24.684;2023-11-19T09:56:27;4.00;;;2.58;;
22752;SDS011;11543;43.144;24.684;2023-11-19T09:58:54;3.53;;;2.47;;
22752;SDS011;11543;43.144;24.684;2023-11-19T10:01:20;5.50;;;2.40;;
22752;SDS011;11543;43.144;24.684;2023-11-19T10:03:46;4.15;;;2.58;;
22752;SDS011;11543;43.144;24.684;2023-11-19T10:06:14;2.90;;;2.40;;
22752;SDS011;11543;43.144;24.684;2023-11-19T10:08:41;3.67;;;2.67;;
22752;SDS011;11543;43.144;24.684;2023-11-19T10:11:07;3.83;;;2.38;;
22752;SDS011;11543;43.144;24.684;2023-11-19T10:13:36;5.13;;;3.00;;
22752;SDS011;11543;43.144;24.684;2023-11-19T10:16:09;4.03;;;2.42;;
22752;SDS011;11543;43.144;24.684;2023-11-19T10:21:08;3.17;;;2.17;;
22752;SDS011;11543;43.144;24.684;2023-11-19T10:23:51;3.40;;;2.50;;
22752;SDS011;11543;43.144;24.684;2023-11-19T10:26:19;4.25;;;2.45;;
22752;SDS011;11543;43.144;24.684;2023-11-19T10:28:48;3.33;;;2.35;;
22752;SDS011;11543;43.144;24.684;2023-11-19T10:31:15;4.75;;;2.50;;
22752;SDS011;11543;43.144;24.684;2023-11-19T10:33:42;3.42;;;2.10;;
22752;SDS011;11543;43.144;24.684;2023-11-19T10:36:10;3.00;;;2.50;;
22752;SDS011;11543;43.144;24.684;2023-11-19T10:38:37;2.67;;;2.00;;
22752;SDS011;11543;43.144;24.684;2023-11-19T10:41:03;3.83;;;2.25;;
22752;SDS011;11543;43.144;24.684;2023-11-19T10:43:30;3.25;;;2.30;;
22752;SDS011;11543;43.144;24.684;2023-11-19T10:46:08;2.88;;;2.20;;
22752;SDS011;11543;43.144;24.684;2023-11-19T10:51:04;3.05;;;2.30;;
22752;SDS011;11543;43.144;24.684;2023-11-19T10:53:36;2.88;;;1.98;;
22752;SDS011;11543;43.144;24.684;2023-11-19T11:03:02;3.45;;;2.30;;
22752;SDS011;11543;43.144;24.684;2023-11-19T11:16:18;2.65;;;2.20;;
22752;SDS011;11543;43.144;24.684;2023-11-19T11:22:06;3.78;;;2.35;;
22752;SDS011;11543;43.144;24.684;2023-11-19T11:45:07;5.30;;;2.67;;
22752;SDS011;11543;43.144;24.684;2023-11-19T11:50:16;2.78;;;2.42;;
22752;SDS011;11543;43.144;24.684;2023-11-19T11:57:53;4.45;;;2.88;;
22752;SDS011;11543;43.144;24.684;2023-11-19T12:00:24;3.05;;;2.28;;
22752;SDS011;11543;43.144;24.684;2023-11-19T12:02:54;2.60;;;2.17;;
22752;SDS011;11543;43.144;24.684;2023-11-19T12:05:21;3.58;;;2.70;;
22752;SDS011;11543;43.144;24.684;2023-11-19T12:08:06;3.22;;;2.30;;
22752;SDS011;11543;43.144;24.684;2023-11-19T12:10:46;3.30;;;2.10;;
22752;SDS011;11543;43.144;24.684;2023-11-19T12:13:14;2.80;;;2.30;;
22752;SDS011;11543;43.144;24.684;2023-11-19T12:18:21;3.08;;;2.47;;
22752;SDS011;11543;43.144;24.684;2023-11-19T12:20:57;3.28;;;2.53;;
22752;SDS011;11543;43.144;24.684;2023-11-19T12:23:30;3.80;;;2.50;;
22752;SDS011;11543;43.144;24.684;2023-11-19T12:25:57;3.75;;;2.70;;
22752;SDS011;11543;43.144;24.684;2023-11-19T12:28:24;3.88;;;2.30;;
22752;SDS011;11543;43.144;24.684;2023-11-19T12:30:52;3.50;;;2.60;;
22752;SDS011;11543;43.144;24.684;2023-11-19T12:33:32;4.18;;;2.78;;
22752;SDS011;11543;43.144;24.684;2023-11-19T12:35:57;2.80;;;2.35;;
22752;SDS011;11543;43.144;24.684;2023-11-19T12:38:24;3.90;;;2.70;;
22752;SDS011;11543;43.144;24.684;2023-11-19T12:41:03;3.17;;;2.30;;
22752;SDS011;11543;43.144;24.684;2023-11-19T12:43:30;3.92;;;2.67;;
22752;SDS011;11543;43.144;24.684;2023-11-19T12:45:56;4.05;;;2.80;;
22752;SDS011;11543;43.144;24.684;2023-11-19T12:48:24;3.17;;;2.42;;
22752;SDS011;11543;43.144;24.684;2023-11-19T12:50:54;3.17;;;2.55;;
22752;SDS011;11543;43.144;24.684;2023-11-19T12:53:25;2.70;;;2.33;;
22752;SDS011;11543;43.144;24.684;2023-11-19T12:55:52;3.42;;;2.53;;
22752;SDS011;11543;43.144;24.684;2023-11-19T12:58:35;3.83;;;2.40;;
22752;SDS011;11543;43.144;24.684;2023-11-19T13:01:06;3.42;;;2.63;;
22752;SDS011;11543;43.144;24.684;2023-11-19T13:06:02;4.57;;;2.50;;
22752;SDS011;11543;43.144;24.684;2023-11-19T13:08:29;4.00;;;2.72;;
22752;SDS011;11543;43.144;24.684;2023-11-19T13:11:02;3.65;;;2.25;;
22752;SDS011;11543;43.144;24.684;2023-11-19T13:13:29;3.28;;;2.47;;
22752;SDS011;11543;43.144;24.684;2023-11-19T13:16:04;4.90;;;2.70;;
22752;SDS011;11543;43.144;24.684;2023-11-19T13:18:34;2.90;;;2.30;;
22752;SDS011;11543;43.144;24.684;2023-11-19T13:21:00;2.70;;;2.42;;
22752;SDS011;11543;43.144;24.684;2023-11-19T13:23:25;2.95;;;2.53;;
22752;SDS011;11543;43.144;24.684;2023-11-19T13:25:51;3.40;;;2.33;;
22752;SDS011;11543;43.144;24.684;2023-11-19T13:28:17;3.13;;;2.63;;
22752;SDS011;11543;43.144;24.684;2023-11-19T13:30:42;3.17;;;2.58;;
22752;SDS011;11543;43.144;24.684;2023-11-19T13:33:08;4.00;;;2.78;;
22752;SDS011;11543;43.144;24.684;2023-11-19T13:35:37;5.18;;;3.65;;
22752;SDS011;11543;43.144;24.684;2023-11-19T13:38:05;4.97;;;3.33;;
22752;SDS011;11543;43.144;24.684;2023-11-19T13:40:30;3.63;;;2.50;;
22752;SDS011;11543;43.144;24.684;2023-11-19T13:42:56;3.22;;;2.72;;
22752;SDS011;11543;43.144;24.684;2023-11-19T13:45:21;3.75;;;2.70;;
22752;SDS011;11543;43.144;24.684;2023-11-19T13:47:47;3.63;;;2.33;;
22752;SDS011;11543;43.144;24.684;2023-11-19T13:50:13;3.53;;;2.55;;
22752;SDS011;11543;43.144;24.684;2023-11-19T13:52:40;3.47;;;2.38;;
22752;SDS011;11543;43.144;24.684;2023-11-19T13:55:08;9.63;;;2.65;;
22752;SDS011;11543;43.144;24.684;2023-11-19T13:57:38;5.50;;;2.80;;
22752;SDS011;11543;43.144;24.684;2023-11-19T14:00:05;6.20;;;3.90;;
22752;SDS011;11543;43.144;24.684;2023-11-19T14:02:35;3.60;;;2.47;;
22752;SDS011;11543;43.144;24.684;2023-11-19T14:05:00;3.25;;;2.53;;
22752;SDS011;11543;43.144;24.684;2023-11-19T14:07:26;2.85;;;2.30;;
22752;SDS011;11543;43.144;24.684;2023-11-19T14:09:52;3.20;;;2.40;;
22752;SDS011;11543;43.144;24.684;2023-11-19T14:12:18;3.25;;;2.25;;
22752;SDS011;11543;43.144;24.684;2023-11-19T14:14:43;4.28;;;2.63;;
22752;SDS011;11543;43.144;24.684;2023-11-19T14:17:09;4.22;;;2.60;;
22752;SDS011;11543;43.144;24.684;2023-11-19T14:19:36;5.55;;;2.60;;
22752;SDS011;11543;43.144;24.684;2023-11-19T14:22:01;3.88;;;2.60;;
22752;SDS011;11543;43.144;24.684;2023-11-19T14:24:27;3.38;;;2.30;;
22752;SDS011;11543;43.144;24.684;2023-11-19T14:26:53;3.63;;;2.50;;
22752;SDS011;11543;43.144;24.684;2023-11-19T14:29:18;2.88;;;2.35;;
22752;SDS011;11543;43.144;24.684;2023-11-19T14:31:44;5.22;;;2.40;;
22752;SDS011;11543;43.144;24.684;2023-11-19T14:34:09;3.22;;;2.40;;
22752;SDS011;11543;43.144;24.684;2023-11-19T14:36:35;3.13;;;2.60;;
22752;SDS011;11543;43.144;24.684;2023-11-19T14:39:00;3.10;;;2.45;;
22752;SDS011;11543;43.144;24.684;2023-11-19T14:41:26;4.70;;;2.75;;
22752;SDS011;11543;43.144;24.684;2023-11-19T14:43:51;3.85;;;2.40;;
22752;SDS011;11543;43.144;24.684;2023-11-19T14:46:17;3.40;;;2.53;;
22752;SDS011;11543;43.144;24.684;2023-11-19T14:48:43;3.42;;;2.70;;
22752;SDS011;11543;43.144;24.684;2023-11-19T14:51:09;4.53;;;3.30;;
22752;SDS011;11543;43.144;24.684;2023-11-19T14:53:35;4.63;;;3.50;;
22752;SDS011;11543;43.144;24.684;2023-11-19T14:56:00;14.88;;;8.77;;
22752;SDS011;11543;43.144;24.684;2023-11-19T14:58:26;23.80;;;16.08;;
22752;SDS011;11543;43.144;24.684;2023-11-19T15:00:52;17.67;;;11.40;;
22752;SDS011;11543;43.144;24.684;2023-11-19T15:03:18;7.80;;;5.55;;
22752;SDS011;11543;43.144;24.684;2023-11-19T15:05:44;13.63;;;9.43;;
22752;SDS011;11543;43.144;24.684;2023-11-19T15:08:13;14.45;;;9.07;;
22752;SDS011;11543;43.144;24.684;2023-11-19T15:10:44;15.55;;;8.75;;
22752;SDS011;11543;43.144;24.684;2023-11-19T15:13:10;14.43;;;9.80;;
22752;SDS011;11543;43.144;24.684;2023-11-19T15:15:35;18.50;;;13.20;;
22752;SDS011;11543;43.144;24.684;2023-11-19T15:18:01;22.45;;;14.32;;
22752;SDS011;11543;43.144;24.684;2023-11-19T15:20:26;20.80;;;12.52;;
22752;SDS011;11543;43.144;24.684;2023-11-19T15:22:56;19.33;;;12.30;;
22752;SDS011;11543;43.144;24.684;2023-11-19T15:25:22;17.58;;;12.30;;
22752;SDS011;11543;43.144;24.684;2023-11-19T15:27:48;21.55;;;15.35;;
22752;SDS011;11543;43.144;24.684;2023-11-19T15:30:14;20.63;;;14.65;;
22752;SDS011;11543;43.144;24.684;2023-11-19T15:32:40;17.95;;;14.15;;